createdAt,value
2022-11-05T00:00:27.601Z,1.70
2022-11-05T00:02:54.734Z,1.33
2022-11-05T00:05:21.904Z,0.90
2022-11-05T00:07:52.356Z,1.13
2022-11-05T00:10:23.692Z,1.48
2022-11-05T00:12:52.156Z,1.17
2022-11-05T00:15:19.264Z,1.20
2022-11-05T00:17:46.607Z,1.30
2022-11-05T00:20:13.917Z,1.13
2022-11-05T00:22:41.454Z,1.27
2022-11-05T00:25:09.470Z,1.17
2022-11-05T00:27:38.283Z,1.42
2022-11-05T00:30:06.443Z,1.50
2022-11-05T00:32:33.813Z,1.25
2022-11-05T00:35:00.894Z,0.88
2022-11-05T00:37:28.439Z,1.15
2022-11-05T00:39:55.670Z,0.90
2022-11-05T00:42:22.704Z,1.00
2022-11-05T00:44:51.504Z,0.90
2022-11-05T00:47:18.629Z,0.80
2022-11-05T00:49:45.897Z,1.00
2022-11-05T00:52:13.018Z,1.10
2022-11-05T00:54:40.189Z,1.00
2022-11-05T00:57:07.490Z,1.02
2022-11-05T00:59:34.629Z,0.88
2022-11-05T01:02:03.403Z,1.00
2022-11-05T01:04:31.522Z,1.00
2022-11-05T01:06:58.738Z,0.85
2022-11-05T01:09:26.451Z,1.08
2022-11-05T01:11:53.446Z,1.17
2022-11-05T01:14:20.716Z,1.05
2022-11-05T01:16:47.822Z,1.45
2022-11-05T01:19:16.538Z,1.10
2022-11-05T01:21:43.588Z,1.45
2022-11-05T01:24:11.143Z,1.30
2022-11-05T01:26:38.083Z,0.70
2022-11-05T01:29:05.282Z,0.90
2022-11-05T01:31:32.795Z,1.13
2022-11-05T01:34:01.015Z,0.80
2022-11-05T01:36:30.169Z,0.90
2022-11-05T01:38:57.110Z,0.90
2022-11-05T01:41:24.508Z,1.10
2022-11-05T01:43:54.078Z,1.30
2022-11-05T01:46:27.197Z,0.88
2022-11-05T01:49:02.691Z,0.90
2022-11-05T01:54:03.701Z,0.90
2022-11-05T01:56:34.842Z,1.02
2022-11-05T01:59:06.768Z,0.98
2022-11-05T02:01:34.330Z,0.90
2022-11-05T02:04:04.924Z,1.00
2022-11-05T02:06:37.638Z,0.70
2022-11-05T02:09:09.576Z,0.90
2022-11-05T02:11:36.727Z,0.80
2022-11-05T02:14:06.051Z,0.90
2022-11-05T02:16:40.118Z,0.95
2022-11-05T02:19:25.996Z,0.90
2022-11-05T02:22:28.148Z,0.77
2022-11-05T02:25:05.478Z,0.88
2022-11-05T02:28:09.065Z,1.10
2022-11-05T02:30:47.561Z,1.00
2022-11-05T02:33:39.416Z,1.02
2022-11-05T02:36:32.533Z,1.10
2022-11-05T02:39:12.162Z,1.10
2022-11-05T02:41:53.052Z,1.30
2022-11-05T02:44:28.956Z,0.90
2022-11-05T02:47:07.287Z,1.10
2022-11-05T02:49:44.514Z,1.17
2022-11-05T02:52:20.272Z,0.85
2022-11-05T02:54:57.672Z,0.95
2022-11-05T02:57:24.701Z,0.70
2022-11-05T03:00:00.963Z,1.00
2022-11-05T03:02:29.620Z,0.77
2022-11-05T03:04:57.045Z,0.70
2022-11-05T03:07:36.943Z,0.80
2022-11-05T03:10:21.321Z,0.80
2022-11-05T03:13:01.001Z,3.60
2022-11-05T03:15:56.807Z,2.53
2022-11-05T03:18:35.147Z,0.95
2022-11-05T03:21:09.877Z,1.10
2022-11-05T03:23:43.337Z,0.60
2022-11-05T03:26:17.863Z,0.70
2022-11-05T03:28:49.453Z,0.90
2022-11-05T03:31:17.890Z,1.00
2022-11-05T03:33:49.380Z,0.93
2022-11-05T03:36:22.966Z,1.20
2022-11-05T03:38:53.285Z,0.80
2022-11-05T03:41:23.411Z,0.80
2022-11-05T03:43:55.210Z,0.73
2022-11-05T03:46:28.741Z,1.00
2022-11-05T03:49:02.492Z,1.10
2022-11-05T03:51:38.803Z,0.95
2022-11-05T03:54:06.651Z,1.00
2022-11-05T03:56:38.664Z,1.20
2022-11-05T03:59:08.177Z,0.90
2022-11-05T04:01:37.787Z,1.40
2022-11-05T04:04:08.099Z,2.97
2022-11-05T04:06:36.399Z,2.22
2022-11-05T04:09:03.921Z,1.65
2022-11-05T04:11:31.104Z,1.02
2022-11-05T04:13:58.374Z,1.00
2022-11-05T04:16:25.393Z,0.85
2022-11-05T04:18:52.532Z,0.80
2022-11-05T04:21:21.097Z,0.90
2022-11-05T04:23:48.381Z,0.90
2022-11-05T04:26:15.503Z,0.85
2022-11-05T04:28:42.447Z,1.05
2022-11-05T04:31:09.667Z,1.40
2022-11-05T04:33:36.875Z,1.35
2022-11-05T04:36:04.769Z,1.27
2022-11-05T04:38:33.856Z,1.10
2022-11-05T04:41:13.581Z,1.20
2022-11-05T04:43:40.721Z,1.10
2022-11-05T04:46:08.491Z,1.55
2022-11-05T04:48:35.726Z,2.42
2022-11-05T04:51:02.904Z,2.63
2022-11-05T04:53:29.963Z,1.77
2022-11-05T04:56:11.657Z,1.00
2022-11-05T04:58:42.236Z,1.13
2022-11-05T05:01:13.704Z,1.23
2022-11-05T05:03:40.868Z,1.20
2022-11-05T05:06:09.656Z,1.67
2022-11-05T05:08:36.935Z,2.70
2022-11-05T05:11:05.402Z,1.38
2022-11-05T05:13:34.616Z,0.90
2022-11-05T05:16:06.536Z,0.90
2022-11-05T05:18:33.849Z,1.00
2022-11-05T05:21:01.497Z,1.40
2022-11-05T05:23:28.499Z,1.30
2022-11-05T05:25:55.421Z,0.80
2022-11-05T05:28:22.521Z,1.00
2022-11-05T05:30:56.124Z,1.27
2022-11-05T05:35:52.536Z,1.50
2022-11-05T05:38:19.657Z,1.30
2022-11-05T05:40:46.680Z,1.50
2022-11-05T05:43:13.914Z,1.00
2022-11-05T05:45:41.502Z,1.08
2022-11-05T05:48:10.349Z,1.33
2022-11-05T05:50:37.505Z,1.30
2022-11-05T05:53:04.705Z,2.08
2022-11-05T05:55:32.096Z,1.90
2022-11-05T05:57:59.297Z,2.10
2022-11-05T06:00:26.358Z,1.20
2022-11-05T06:02:55.870Z,1.20
2022-11-05T06:05:24.792Z,1.25
2022-11-05T06:07:56.635Z,1.23
2022-11-05T06:10:24.137Z,1.10
2022-11-05T06:12:51.410Z,1.13
2022-11-05T06:15:18.628Z,0.90
2022-11-05T06:17:46.068Z,1.00
2022-11-05T06:20:13.530Z,1.25
2022-11-05T06:22:42.741Z,0.88
2022-11-05T06:25:14.083Z,0.80
2022-11-05T06:27:41.326Z,1.00
2022-11-05T06:30:09.867Z,1.00
2022-11-05T06:32:37.098Z,1.13
2022-11-05T06:35:04.750Z,1.05
2022-11-05T06:37:32.786Z,1.60
2022-11-05T06:40:02.367Z,1.58
2022-11-05T06:42:29.403Z,2.20
2022-11-05T06:44:56.455Z,1.95
2022-11-05T06:47:23.486Z,2.40
2022-11-05T06:49:50.722Z,2.40
2022-11-05T06:52:18.438Z,2.17
2022-11-05T06:54:45.708Z,2.63
2022-11-05T06:57:14.211Z,2.22
2022-11-05T06:59:41.760Z,2.10
2022-11-05T07:02:12.270Z,1.90
2022-11-05T07:04:39.781Z,2.22
2022-11-05T07:07:07.126Z,3.60
2022-11-05T07:09:34.381Z,4.53
2022-11-05T07:12:01.586Z,3.80
2022-11-05T07:14:30.301Z,2.67
2022-11-05T07:16:57.623Z,2.40
2022-11-05T07:19:24.745Z,2.05
2022-11-05T07:21:51.977Z,1.80
2022-11-05T07:24:19.264Z,1.63
2022-11-05T07:26:46.359Z,1.60
2022-11-05T07:29:13.637Z,1.00
2022-11-05T07:31:42.540Z,1.30
2022-11-05T07:34:09.664Z,1.02
2022-11-05T07:36:36.796Z,0.85
2022-11-05T07:39:04.094Z,0.80
2022-11-05T07:41:31.358Z,0.73
2022-11-05T07:43:58.603Z,0.70
2022-11-05T07:46:26.077Z,0.70
2022-11-05T07:48:54.569Z,0.70
2022-11-05T07:51:22.422Z,0.90
2022-11-05T07:53:49.588Z,0.80
2022-11-05T07:56:16.942Z,0.60
2022-11-05T07:58:44.146Z,0.70
2022-11-05T08:01:11.448Z,0.80
2022-11-05T08:03:39.090Z,0.95
2022-11-05T08:06:08.360Z,0.80
2022-11-05T08:08:35.611Z,0.60
2022-11-05T08:11:03.400Z,0.93
2022-11-05T08:13:30.783Z,0.73
2022-11-05T08:15:58.067Z,0.93
2022-11-05T08:18:25.639Z,1.10
2022-11-05T08:20:53.061Z,0.90
2022-11-05T08:23:21.764Z,1.42
2022-11-05T08:25:48.790Z,1.60
2022-11-05T08:28:15.768Z,0.75
2022-11-05T08:30:43.253Z,0.85
2022-11-05T08:33:12.398Z,0.93
2022-11-05T08:35:40.644Z,0.90
2022-11-05T08:38:10.233Z,1.00
2022-11-05T08:40:38.898Z,0.88
2022-11-05T08:43:08.216Z,0.95
2022-11-05T08:45:38.276Z,2.70
2022-11-05T08:48:07.884Z,1.67
2022-11-05T08:50:35.592Z,1.30
2022-11-05T08:53:02.952Z,1.60
2022-11-05T08:55:30.145Z,1.60
2022-11-05T08:58:00.323Z,1.40
2022-11-05T09:00:30.599Z,1.30
2022-11-05T09:02:59.141Z,1.17
2022-11-05T09:05:26.451Z,1.45
2022-11-05T09:07:59.392Z,0.82
2022-11-05T09:10:28.517Z,0.98
2022-11-05T09:12:55.919Z,0.98
2022-11-05T09:15:24.688Z,0.82
2022-11-05T09:17:52.033Z,1.00
2022-11-05T09:20:19.191Z,0.93
2022-11-05T09:22:46.434Z,0.90
2022-11-05T09:25:13.992Z,0.70
2022-11-05T09:27:41.291Z,0.82
2022-11-05T09:30:11.140Z,1.00
2022-11-05T09:32:39.890Z,1.20
2022-11-05T09:35:08.728Z,0.80
2022-11-05T09:37:36.296Z,0.77
2022-11-05T09:40:04.574Z,0.70
2022-11-05T09:42:37.223Z,0.88
2022-11-05T09:45:10.377Z,0.90
2022-11-05T09:47:44.078Z,0.93
2022-11-05T09:50:16.571Z,0.70
2022-11-05T09:52:43.919Z,0.60
2022-11-05T09:55:30.310Z,0.80
2022-11-05T09:58:00.099Z,0.70
2022-11-05T10:00:29.332Z,0.80
2022-11-05T10:03:01.327Z,0.70
2022-11-05T10:05:29.034Z,0.60
2022-11-05T10:07:59.621Z,0.70
2022-11-05T10:10:40.341Z,0.90
2022-11-05T10:13:25.809Z,0.50
2022-11-05T10:16:00.373Z,0.60
2022-11-05T10:18:33.153Z,0.70
2022-11-05T10:21:01.310Z,0.55
2022-11-05T10:23:29.182Z,0.60
2022-11-05T10:26:00.797Z,0.60
2022-11-05T10:28:29.633Z,0.73
2022-11-05T10:30:59.753Z,0.80
2022-11-05T10:33:33.693Z,0.70
2022-11-05T10:36:04.983Z,0.80
2022-11-05T10:38:33.146Z,0.80
2022-11-05T10:41:14.247Z,0.80
2022-11-05T10:43:47.750Z,0.88
2022-11-05T10:46:27.635Z,0.77
2022-11-05T10:49:06.629Z,0.70
2022-11-05T10:51:33.894Z,0.60
2022-11-05T10:54:05.667Z,0.68
2022-11-05T10:56:35.722Z,0.70
2022-11-05T10:59:09.390Z,0.68
2022-11-05T11:01:39.181Z,0.80
2022-11-05T11:04:16.606Z,0.63
2022-11-05T11:06:50.522Z,0.70
2022-11-05T11:09:24.454Z,0.63
2022-11-05T11:12:04.736Z,0.73
2022-11-05T11:14:32.316Z,0.70
2022-11-05T11:17:23.816Z,0.65
2022-11-05T11:19:52.278Z,0.68
2022-11-05T11:22:21.495Z,0.60
2022-11-05T11:24:51.570Z,0.60
2022-11-05T11:27:23.102Z,0.60
2022-11-05T11:29:57.674Z,0.60
2022-11-05T11:32:28.613Z,0.70
2022-11-05T11:34:57.195Z,0.52
2022-11-05T11:37:28.151Z,0.80
2022-11-05T11:39:58.220Z,0.55
2022-11-05T11:42:32.339Z,0.68
2022-11-05T11:45:02.023Z,0.60
2022-11-05T11:47:30.118Z,0.60
2022-11-05T11:49:59.926Z,0.60
2022-11-05T11:52:30.255Z,0.55
2022-11-05T11:55:19.830Z,0.80
2022-11-05T11:57:49.063Z,0.50
2022-11-05T12:00:17.546Z,0.65
2022-11-05T12:03:03.696Z,0.50
2022-11-05T12:05:44.486Z,0.50
2022-11-05T12:08:36.819Z,2.95
2022-11-05T12:11:09.000Z,0.88
2022-11-05T12:14:08.851Z,0.70
2022-11-05T12:17:12.519Z,0.77
2022-11-05T12:19:54.739Z,0.68
2022-11-05T12:22:34.182Z,0.60
2022-11-05T12:25:21.940Z,0.70
2022-11-05T12:28:09.339Z,0.60
2022-11-05T12:30:48.985Z,0.70
2022-11-05T12:33:27.228Z,0.50
2022-11-05T12:36:13.507Z,0.60
2022-11-05T12:39:05.889Z,0.50
2022-11-05T12:41:40.344Z,0.50
2022-11-05T12:44:23.624Z,0.50
2022-11-05T12:47:03.149Z,0.73
2022-11-05T12:49:46.809Z,0.60
2022-11-05T12:52:35.561Z,0.65
2022-11-05T12:55:09.608Z,0.50
2022-11-05T12:57:40.709Z,0.60
2022-11-05T13:00:16.609Z,0.60
2022-11-05T13:02:52.963Z,0.80
2022-11-05T13:05:28.379Z,1.35
2022-11-05T13:08:01.318Z,0.63
2022-11-05T13:10:35.535Z,0.60
2022-11-05T13:13:12.417Z,0.63
2022-11-05T13:15:46.244Z,0.60
2022-11-05T13:18:18.839Z,0.60
2022-11-05T13:20:52.367Z,0.50
2022-11-05T13:23:31.342Z,0.60
2022-11-05T13:26:06.591Z,0.65
2022-11-05T13:28:45.355Z,0.75
2022-11-05T13:31:18.077Z,0.52
2022-11-05T13:33:49.354Z,0.60
2022-11-05T13:36:22.939Z,0.55
2022-11-05T13:38:54.949Z,0.70
2022-11-05T13:41:34.413Z,0.60
2022-11-05T13:44:27.118Z,0.60
2022-11-05T13:47:12.268Z,0.57
2022-11-05T13:50:11.553Z,0.60
2022-11-05T13:53:03.979Z,0.55
2022-11-05T13:55:49.459Z,0.60
2022-11-05T14:01:14.787Z,0.80
2022-11-05T14:03:48.514Z,0.60
2022-11-05T14:06:24.504Z,0.70
2022-11-05T14:08:52.545Z,0.60
2022-11-05T14:11:24.254Z,0.60
2022-11-05T14:13:56.114Z,0.63
2022-11-05T14:16:26.803Z,0.60
2022-11-05T14:18:56.163Z,0.70
2022-11-05T14:21:33.523Z,0.75
2022-11-05T14:24:24.951Z,0.70
2022-11-05T14:27:33.660Z,0.60
2022-11-05T14:30:01.617Z,0.60
2022-11-05T14:32:46.449Z,0.60
2022-11-05T14:35:37.324Z,0.70
2022-11-05T14:38:06.656Z,0.70
2022-11-05T14:40:37.296Z,0.60
2022-11-05T14:43:08.274Z,0.70
2022-11-05T14:45:37.734Z,1.65
2022-11-05T14:48:23.639Z,0.90
2022-11-05T14:50:52.282Z,0.73
2022-11-05T14:53:34.614Z,0.82
2022-11-05T14:56:06.069Z,0.77
2022-11-05T14:58:37.489Z,1.13
2022-11-05T15:01:07.621Z,1.30
2022-11-05T15:04:01.521Z,1.20
2022-11-05T15:06:34.467Z,1.90
2022-11-05T15:09:17.339Z,1.33
2022-11-05T15:11:57.594Z,1.38
2022-11-05T15:14:31.821Z,1.00
2022-11-05T15:17:04.375Z,0.80
2022-11-05T15:19:35.867Z,1.00
2022-11-05T15:22:07.389Z,1.00
2022-11-05T15:24:35.694Z,1.90
2022-11-05T15:27:08.389Z,1.85
2022-11-05T15:29:35.566Z,1.85
2022-11-05T15:32:03.207Z,1.80
2022-11-05T15:34:33.798Z,1.10
2022-11-05T15:37:02.846Z,1.00
2022-11-05T15:39:34.500Z,0.90
2022-11-05T15:42:11.780Z,0.82
2022-11-05T15:44:40.926Z,1.27
2022-11-05T15:47:18.033Z,1.00
2022-11-05T15:49:51.890Z,1.58
2022-11-05T15:52:22.527Z,1.60
2022-11-05T15:55:18.189Z,1.30
2022-11-05T15:57:51.081Z,0.95
2022-11-05T16:00:22.249Z,1.05
2022-11-05T16:02:55.826Z,0.88
2022-11-05T16:05:27.234Z,1.10
2022-11-05T16:07:57.829Z,0.82
2022-11-05T16:10:29.873Z,1.10
2022-11-05T16:12:58.110Z,1.00
2022-11-05T16:15:27.916Z,1.42
2022-11-05T16:17:57.356Z,1.10
2022-11-05T16:20:30.794Z,1.13
2022-11-05T16:23:00.470Z,1.30
2022-11-05T16:25:36.744Z,1.00
2022-11-05T16:28:05.561Z,1.00
2022-11-05T16:30:33.514Z,0.90
2022-11-05T16:33:07.056Z,2.63
2022-11-05T16:35:47.931Z,1.40
2022-11-05T16:38:17.286Z,3.65
2022-11-05T16:40:44.497Z,1.95
2022-11-05T16:43:20.424Z,1.95
2022-11-05T16:45:48.581Z,2.10
2022-11-05T16:48:18.450Z,3.17
2022-11-05T16:50:48.716Z,1.30
2022-11-05T16:53:17.873Z,1.08
2022-11-05T16:55:46.742Z,1.10
2022-11-05T16:58:21.589Z,1.20
2022-11-05T17:00:51.023Z,1.38
2022-11-05T17:03:19.110Z,1.45
2022-11-05T17:05:49.135Z,1.42
2022-11-05T17:08:16.703Z,1.17
2022-11-05T17:10:45.063Z,1.15
2022-11-05T17:13:16.402Z,1.45
2022-11-05T17:15:45.881Z,1.20
2022-11-05T17:18:18.607Z,1.77
2022-11-05T17:20:51.765Z,1.73
2022-11-05T17:23:22.056Z,1.52
2022-11-05T17:25:52.687Z,2.00
2022-11-05T17:28:21.563Z,4.80
2022-11-05T17:30:52.949Z,4.50
2022-11-05T17:33:22.125Z,3.92
2022-11-05T17:35:52.263Z,5.28
2022-11-05T17:38:21.469Z,3.85
2022-11-05T17:40:50.351Z,2.70
2022-11-05T17:43:19.374Z,1.90
2022-11-05T17:45:49.364Z,2.75
2022-11-05T17:48:17.810Z,3.33
2022-11-05T17:50:47.388Z,3.83
2022-11-05T17:53:20.313Z,2.20
2022-11-05T17:55:48.659Z,2.10
2022-11-05T17:58:16.717Z,2.00
2022-11-05T18:00:46.594Z,2.13
2022-11-05T18:03:15.344Z,2.38
2022-11-05T18:05:44.341Z,2.38
2022-11-05T18:08:12.800Z,3.10
2022-11-05T18:10:44.011Z,3.30
2022-11-05T18:13:12.597Z,2.97
2022-11-05T18:15:40.457Z,2.90
2022-11-05T18:18:08.349Z,2.92
2022-11-05T18:20:36.705Z,3.00
2022-11-05T18:23:05.612Z,2.97
2022-11-05T18:25:37.137Z,2.90
2022-11-05T18:28:10.184Z,3.15
2022-11-05T18:30:39.798Z,3.30
2022-11-05T18:33:08.022Z,3.88
2022-11-05T18:35:43.624Z,4.10
2022-11-05T18:38:12.827Z,4.90
2022-11-05T18:40:40.771Z,4.88
2022-11-05T18:43:11.153Z,5.07
2022-11-05T18:45:39.799Z,4.35
2022-11-05T18:48:08.032Z,7.63
2022-11-05T18:50:36.325Z,3.03
2022-11-05T18:53:05.323Z,2.20
2022-11-05T18:55:32.885Z,2.70
2022-11-05T18:58:03.145Z,5.82
2022-11-05T19:00:33.851Z,4.30
2022-11-05T19:03:01.928Z,5.65
2022-11-05T19:05:30.907Z,4.57
2022-11-05T19:07:59.688Z,5.78
2022-11-05T19:10:28.725Z,6.07
2022-11-05T19:12:56.665Z,3.83
2022-11-05T19:15:25.993Z,2.58
2022-11-05T19:17:56.250Z,1.55
2022-11-05T19:20:24.782Z,2.92
2022-11-05T19:22:53.545Z,3.30
2022-11-05T19:25:21.993Z,2.45
2022-11-05T19:27:50.647Z,1.83
2022-11-05T19:30:22.694Z,2.70
2022-11-05T19:32:51.243Z,2.38
2022-11-05T19:35:22.500Z,2.75
2022-11-05T19:37:50.462Z,3.10
2022-11-05T19:40:19.046Z,2.50
2022-11-05T19:42:49.264Z,2.10
2022-11-05T19:48:18.879Z,2.80
2022-11-05T19:50:51.650Z,2.97
2022-11-05T19:53:22.536Z,3.83
2022-11-05T19:55:50.715Z,6.00
2022-11-05T19:58:19.073Z,3.13
2022-11-05T20:00:46.803Z,10.05
2022-11-05T20:03:15.322Z,6.03
2022-11-05T20:05:42.733Z,7.47
2022-11-05T20:08:14.344Z,5.50
2022-11-05T20:10:43.000Z,3.80
2022-11-05T20:13:17.001Z,4.18
2022-11-05T20:15:49.022Z,5.28
2022-11-05T20:18:17.720Z,4.28
2022-11-05T20:20:45.612Z,3.20
2022-11-05T20:23:16.802Z,3.85
2022-11-05T20:25:45.430Z,7.97
2022-11-05T20:28:14.656Z,4.45
2022-11-05T20:30:43.998Z,3.53
2022-11-05T20:33:13.566Z,3.40
2022-11-05T20:35:45.997Z,3.55
2022-11-05T20:38:16.535Z,4.07
2022-11-05T20:40:45.077Z,4.53
2022-11-05T20:43:12.651Z,3.13
2022-11-05T20:45:40.309Z,3.75
2022-11-05T20:48:08.270Z,3.03
2022-11-05T20:50:41.463Z,2.65
2022-11-05T20:53:10.744Z,2.25
2022-11-05T20:55:44.720Z,2.28
2022-11-05T20:58:12.818Z,3.10
2022-11-05T21:00:41.325Z,2.97
2022-11-05T21:03:14.498Z,3.30
2022-11-05T21:05:46.461Z,2.78
2022-11-05T21:08:15.754Z,2.72
2022-11-05T21:10:50.873Z,2.70
2022-11-05T21:13:19.987Z,3.13
2022-11-05T21:15:52.078Z,2.83
2022-11-05T21:18:22.221Z,3.72
2022-11-05T21:20:51.152Z,4.60
2022-11-05T21:23:20.498Z,3.95
2022-11-05T21:25:50.089Z,3.50
2022-11-05T21:28:18.769Z,3.97
2022-11-05T21:30:47.105Z,3.90
2022-11-05T21:33:19.004Z,2.95
2022-11-05T21:35:48.509Z,2.55
2022-11-05T21:38:17.873Z,3.15
2022-11-05T21:40:46.195Z,2.33
2022-11-05T21:43:17.020Z,1.52
2022-11-05T21:45:45.375Z,2.85
2022-11-05T21:48:13.238Z,3.58
2022-11-05T21:50:40.827Z,3.40
2022-11-05T21:53:11.682Z,2.03
2022-11-05T21:55:41.613Z,2.55
2022-11-05T21:58:14.356Z,2.55
2022-11-05T22:00:44.554Z,6.38
2022-11-05T22:03:12.094Z,5.50
2022-11-05T22:05:40.333Z,4.22
2022-11-05T22:08:08.065Z,3.95
2022-11-05T22:10:35.069Z,2.70
2022-11-05T22:13:02.361Z,2.55
2022-11-05T22:15:29.644Z,4.00
2022-11-05T22:17:59.026Z,4.55
2022-11-05T22:20:27.075Z,2.17
2022-11-05T22:22:54.477Z,4.28
2022-11-05T22:25:22.463Z,3.17
2022-11-05T22:27:51.372Z,3.38
2022-11-05T22:30:18.910Z,3.17
2022-11-05T22:32:45.764Z,2.20
2022-11-05T22:35:14.790Z,2.08
2022-11-05T22:37:41.949Z,1.50
2022-11-05T22:40:10.867Z,1.67
2022-11-05T22:42:38.205Z,2.58
2022-11-05T22:45:06.708Z,1.75
2022-11-05T22:47:33.846Z,1.88
2022-11-05T22:50:00.878Z,1.70
2022-11-05T22:52:29.513Z,1.90
2022-11-05T22:54:57.360Z,2.42
2022-11-05T22:57:24.380Z,2.42
2022-11-05T22:59:51.509Z,2.30
2022-11-05T23:02:18.887Z,1.90
2022-11-05T23:04:46.829Z,1.88
2022-11-05T23:07:14.008Z,1.35
2022-11-05T23:09:42.534Z,1.60
2022-11-05T23:12:21.647Z,1.25
2022-11-05T23:14:48.981Z,1.42
2022-11-05T23:17:16.473Z,1.42
2022-11-05T23:19:43.965Z,1.60
2022-11-05T23:22:12.702Z,1.60
2022-11-05T23:24:39.804Z,1.52
2022-11-05T23:27:08.455Z,1.52
2022-11-05T23:29:35.929Z,1.65
2022-11-05T23:32:03.014Z,1.20
2022-11-05T23:34:30.593Z,1.40
2022-11-05T23:36:57.723Z,1.75
2022-11-05T23:39:25.603Z,1.63
2022-11-05T23:41:52.897Z,1.45
2022-11-05T23:44:21.982Z,1.35
2022-11-05T23:46:49.326Z,2.03
2022-11-05T23:49:16.314Z,2.05
2022-11-05T23:51:43.465Z,2.10
2022-11-05T23:54:10.730Z,1.75
2022-11-05T23:56:38.202Z,1.88
2022-11-05T23:59:05.761Z,1.85
